MSR800 KMCO-EHAM
Flight info
| Callsign | MSR800 |
|---|---|
| Flight time | N/A |
| Altitude | 35000 |
| Route | FATHE4 VIYAP Q87 JROSS Q409 GUILD Q64 SAWED Q108 ZJAAY Q167 RIFLE DCT YAHOO DCT KANNI N257B NICSO/M084F350 DCT 48N050W 51N040W 53N030W 53N020W DCT MALOT/N0483F350 DCT GISTI/N0482F370 DCT LIFFY UL975 WAL M16 DOLAS L603 LAMSO |
| Aircraft | B77W/H-SDE1E2E3FGHIJ2J3J4J5M1RWXY/LB1D1 |
Departure
| Time | 2026-04-25 15:01 |
|---|---|
| Airport | Orlando International Airport (KMCO) |
Arrival
| Time | N/A |
|---|---|
| Airport | Amsterdam Airport Schiphol (EHAM) |
| Time | Latitude | Longitude | Altitude | Speed | Heading |
|---|---|---|---|---|---|
| 2026-04-25 14:24 | 28.43633 | -81.31449 | 107 ft | 0 kts | 236° |
| 2026-04-25 14:53 | 28.43636 | -81.31443 | 107 ft | 4 kts | 236° |
| 2026-04-25 14:53 | 28.43651 | -81.31418 | 104 ft | 4 kts | 236° |
| 2026-04-25 14:53 | 28.43667 | -81.31393 | 104 ft | 4 kts | 236° |
| 2026-04-25 14:53 | 28.43682 | -81.31368 | 104 ft | 3 kts | 236° |
| 2026-04-25 14:54 | 28.43692 | -81.31347 | 105 ft | 4 kts | 264° |
| 2026-04-25 14:54 | 28.43686 | -81.31321 | 104 ft | 4 kts | 298° |
| 2026-04-25 14:54 | 28.43681 | -81.31308 | 106 ft | 0 kts | 278° |
| 2026-04-25 14:56 | 28.43681 | -81.31309 | 106 ft | 0 kts | 278° |
| 2026-04-25 14:57 | 28.43682 | -81.31319 | 106 ft | 4 kts | 276° |
| 2026-04-25 14:57 | 28.43686 | -81.31391 | 108 ft | 14 kts | 277° |
| 2026-04-25 14:57 | 28.43712 | -81.31544 | 106 ft | 24 kts | 284° |
| 2026-04-25 14:57 | 28.43839 | -81.31683 | 110 ft | 26 kts | 346° |
| 2026-04-25 14:58 | 28.43919 | -81.31754 | 111 ft | 16 kts | 285° |
| 2026-04-25 14:58 | 28.43969 | -81.31866 | 113 ft | 17 kts | 331° |
| 2026-04-25 14:58 | 28.44092 | -81.31899 | 111 ft | 20 kts | 356° |
| 2026-04-25 14:58 | 28.44250 | -81.31903 | 110 ft | 25 kts | 359° |
| 2026-04-25 14:59 | 28.44435 | -81.31906 | 111 ft | 29 kts | 360° |
| 2026-04-25 14:59 | 28.44636 | -81.31908 | 107 ft | 17 kts | 359° |
| 2026-04-25 14:59 | 28.44759 | -81.31911 | 107 ft | 18 kts | 352° |
| 2026-04-25 14:59 | 28.44818 | -81.32023 | 106 ft | 19 kts | 276° |
| 2026-04-25 15:00 | 28.44818 | -81.32123 | 105 ft | 20 kts | 268° |
| 2026-04-25 15:00 | 28.44729 | -81.32226 | 107 ft | 20 kts | 190° |
| 2026-04-25 15:00 | 28.44301 | -81.32220 | 110 ft | 101 kts | 179° |
| 2026-04-25 15:00 | 28.43275 | -81.32207 | 138 ft | 189 kts | 179° |
| 2026-04-25 15:01 | 28.41860 | -81.32192 | 1027 ft | 216 kts | 179° |
| 2026-04-25 15:01 | 28.40271 | -81.32123 | 2093 ft | 234 kts | 184° |
| 2026-04-25 15:01 | 28.38721 | -81.32650 | 2754 ft | 241 kts | 210° |
| 2026-04-25 15:01 | 28.37206 | -81.33648 | 3192 ft | 257 kts | 208° |
| 2026-04-25 15:02 | 28.35599 | -81.34614 | 3941 ft | 265 kts | 207° |
| 2026-04-25 15:02 | 28.34050 | -81.35770 | 4650 ft | 270 kts | 227° |
| 2026-04-25 15:02 | 28.33080 | -81.37579 | 5403 ft | 275 kts | 253° |
| 2026-04-25 15:02 | 28.32903 | -81.39724 | 6273 ft | 276 kts | 279° |
| 2026-04-25 15:03 | 28.33597 | -81.41739 | 7107 ft | 276 kts | 307° |
| 2026-04-25 15:03 | 28.35046 | -81.43147 | 7972 ft | 275 kts | 335° |
| 2026-04-25 15:03 | 28.36899 | -81.43675 | 8778 ft | 278 kts | 356° |
| 2026-04-25 15:03 | 28.38840 | -81.43717 | 9422 ft | 285 kts | 358° |
| 2026-04-25 15:04 | 28.40835 | -81.43713 | 10194 ft | 287 kts | 358° |
| 2026-04-25 15:04 | 28.42838 | -81.43695 | 10983 ft | 288 kts | 358° |
| 2026-04-25 15:04 | 28.44847 | -81.43675 | 11790 ft | 289 kts | 358° |
| 2026-04-25 15:04 | 28.46901 | -81.43658 | 12278 ft | 305 kts | 358° |
| 2026-04-25 15:05 | 28.50199 | -81.43643 | 12545 ft | 340 kts | 358° |
| 2026-04-25 15:05 | 28.54337 | -81.43630 | 12934 ft | 377 kts | 358° |
| 2026-04-25 15:05 | 28.57003 | -81.43623 | 13510 ft | 387 kts | 358° |
| 2026-04-25 15:06 | 28.62497 | -81.43614 | 14811 ft | 400 kts | 358° |
| 2026-04-25 15:06 | 28.65302 | -81.43611 | 15452 ft | 406 kts | 358° |
| 2026-04-25 15:06 | 28.68107 | -81.43609 | 16103 ft | 411 kts | 358° |
| 2026-04-25 15:06 | 28.70995 | -81.43607 | 16769 ft | 416 kts | 358° |
| 2026-04-25 15:07 | 28.73920 | -81.43606 | 17401 ft | 422 kts | 358° |
| 2026-04-25 15:07 | 28.76877 | -81.43606 | 18003 ft | 428 kts | 358° |
| 2026-04-25 15:07 | 28.79872 | -81.43605 | 18573 ft | 433 kts | 358° |
| 2026-04-25 15:07 | 28.82916 | -81.43604 | 19201 ft | 436 kts | 358° |
| 2026-04-25 15:08 | 28.85959 | -81.43603 | 19830 ft | 438 kts | 358° |
| 2026-04-25 15:08 | 28.89018 | -81.43603 | 20451 ft | 441 kts | 358° |
| 2026-04-25 15:08 | 28.92110 | -81.43602 | 21028 ft | 445 kts | 358° |
| 2026-04-25 15:08 | 28.95225 | -81.43602 | 21584 ft | 449 kts | 358° |
| 2026-04-25 15:09 | 28.98319 | -81.43601 | 22093 ft | 452 kts | 358° |
| 2026-04-25 15:09 | 29.01490 | -81.43601 | 22595 ft | 456 kts | 358° |
| 2026-04-25 15:09 | 29.07879 | -81.43599 | 23585 ft | 463 kts | 359° |
| 2026-04-25 15:10 | 29.12604 | -81.43598 | 24165 ft | 468 kts | 359° |
| 2026-04-25 15:10 | 29.17071 | -81.43597 | 24686 ft | 472 kts | 359° |
| 2026-04-25 15:10 | 29.23710 | -81.43595 | 25418 ft | 479 kts | 359° |
| 2026-04-25 15:11 | 29.27067 | -81.43594 | 25761 ft | 482 kts | 359° |
| 2026-04-25 15:11 | 29.30395 | -81.43594 | 26061 ft | 485 kts | 359° |
| 2026-04-25 15:11 | 29.33782 | -81.43593 | 26376 ft | 487 kts | 359° |
| 2026-04-25 15:12 | 29.40601 | -81.43592 | 26938 ft | 492 kts | 359° |
| 2026-04-25 15:12 | 29.44036 | -81.43592 | 27324 ft | 492 kts | 359° |
| 2026-04-25 15:12 | 29.47456 | -81.43591 | 27792 ft | 490 kts | 359° |
| 2026-04-25 15:12 | 29.48606 | -81.43591 | 27958 ft | 489 kts | 360° |
| 2026-04-25 15:13 | 29.53131 | -81.43590 | 28601 ft | 487 kts | 360° |
| 2026-04-25 15:13 | 29.59909 | -81.43588 | 29503 ft | 485 kts | 360° |
| 2026-04-25 15:13 | 29.64386 | -81.43588 | 30123 ft | 484 kts | 0° |
| 2026-04-25 15:14 | 29.66657 | -81.43587 | 30383 ft | 483 kts | 360° |
| 2026-04-25 15:14 | 29.69986 | -81.43587 | 30738 ft | 482 kts | 360° |
| 2026-04-25 15:14 | 29.73349 | -81.43586 | 31070 ft | 482 kts | 360° |
| 2026-04-25 15:14 | 29.76697 | -81.43586 | 31402 ft | 482 kts | 360° |
| 2026-04-25 15:15 | 29.80057 | -81.43585 | 31747 ft | 481 kts | 360° |
| 2026-04-25 15:15 | 29.84492 | -81.43585 | 32192 ft | 480 kts | 359° |
| 2026-04-25 15:15 | 29.86753 | -81.43584 | 32444 ft | 479 kts | 359° |
| 2026-04-25 15:15 | 29.90095 | -81.43584 | 32781 ft | 479 kts | 359° |
| 2026-04-25 15:16 | 29.93381 | -81.43583 | 33072 ft | 479 kts | 359° |
| 2026-04-25 15:16 | 29.96719 | -81.43583 | 33345 ft | 477 kts | 359° |
| 2026-04-25 15:16 | 30.03383 | -81.43582 | 33604 ft | 481 kts | 359° |
| 2026-04-25 15:17 | 30.13502 | -81.43580 | 33698 ft | 490 kts | 359° |
| 2026-04-25 15:18 | 30.20356 | -81.43579 | 33748 ft | 493 kts | 359° |
| 2026-04-25 15:18 | 30.27241 | -81.43578 | 34055 ft | 491 kts | 359° |
| 2026-04-25 15:18 | 30.30614 | -81.43577 | 34260 ft | 489 kts | 359° |
| 2026-04-25 15:19 | 30.34009 | -81.43548 | 34451 ft | 484 kts | 2° |
| 2026-04-25 15:19 | 30.36221 | -81.43375 | 34472 ft | 480 kts | 0° |
| 2026-04-25 15:19 | 30.44077 | -81.43258 | 34507 ft | 485 kts | 358° |
| 2026-04-25 15:20 | 30.47455 | -81.43290 | 34652 ft | 484 kts | 358° |
| 2026-04-25 15:20 | 30.50816 | -81.43327 | 34888 ft | 482 kts | 358° |
| 2026-04-25 15:20 | 30.57511 | -81.43381 | 34975 ft | 485 kts | 358° |
| 2026-04-25 15:21 | 30.64302 | -81.43406 | 34982 ft | 489 kts | 359° |
| 2026-04-25 15:21 | 30.71147 | -81.43422 | 34991 ft | 493 kts | 359° |
| 2026-04-25 15:22 | 30.78037 | -81.43437 | 34968 ft | 494 kts | 359° |
| 2026-04-25 15:22 | 30.84875 | -81.43455 | 34967 ft | 495 kts | 358° |
| 2026-04-25 15:23 | 30.91776 | -81.43473 | 34960 ft | 494 kts | 358° |
| 2026-04-25 15:23 | 30.98608 | -81.42655 | 34959 ft | 496 kts | 14° |
| 2026-04-25 15:24 | 31.05008 | -81.39626 | 34952 ft | 499 kts | 27° |
| 2026-04-25 15:24 | 31.10012 | -81.36260 | 34946 ft | 499 kts | 28° |
| 2026-04-25 15:25 | 31.16993 | -81.31517 | 34955 ft | 498 kts | 28° |
| 2026-04-25 15:25 | 31.22986 | -81.27497 | 34973 ft | 498 kts | 27° |
| 2026-04-25 15:26 | 31.29027 | -81.23473 | 34949 ft | 499 kts | 27° |
| 2026-04-25 15:26 | 31.35079 | -81.19444 | 34951 ft | 499 kts | 27° |
| 2026-04-25 15:27 | 31.41121 | -81.15412 | 34947 ft | 499 kts | 27° |
| 2026-04-25 15:28 | 31.50148 | -81.09374 | 34942 ft | 499 kts | 27° |
| 2026-04-25 15:28 | 31.56182 | -81.05330 | 34948 ft | 499 kts | 27° |
| 2026-04-25 15:29 | 31.62227 | -81.01272 | 34937 ft | 498 kts | 27° |
| 2026-04-25 15:29 | 31.68248 | -80.97224 | 34930 ft | 498 kts | 28° |
| 2026-04-25 15:30 | 31.74247 | -80.93186 | 34923 ft | 498 kts | 28° |
| 2026-04-25 15:30 | 31.80274 | -80.89121 | 34945 ft | 498 kts | 28° |
| 2026-04-25 15:31 | 31.86250 | -80.85087 | 34924 ft | 498 kts | 28° |
| 2026-04-25 15:31 | 31.92148 | -80.81098 | 35330 ft | 497 kts | 29° |
| 2026-04-25 15:31 | 31.95164 | -80.79057 | 35185 ft | 501 kts | 29° |
| 2026-04-25 15:32 | 31.98208 | -80.77000 | 35098 ft | 506 kts | 31° |
| 2026-04-25 15:32 | 32.04228 | -80.72906 | 35583 ft | 470 kts | 27° |
| 2026-04-25 15:33 | 32.09651 | -80.69207 | 35245 ft | 447 kts | 27° |
| 2026-04-25 15:33 | 32.12402 | -80.67342 | 34932 ft | 458 kts | 28° |
| 2026-04-25 15:33 | 32.19949 | -80.62218 | 34972 ft | 474 kts | 28° |
| 2026-04-25 15:34 | 32.25713 | -80.58289 | 34950 ft | 485 kts | 28° |
| 2026-04-25 15:34 | 32.30623 | -80.54935 | 34945 ft | 492 kts | 28° |
| 2026-04-25 15:35 | 32.40842 | -80.47939 | 34938 ft | 503 kts | 29° |
| 2026-04-25 15:35 | 32.46936 | -80.43758 | 34937 ft | 508 kts | 29° |
| 2026-04-25 15:36 | 32.74507 | -80.24765 | 34921 ft | 499 kts | 29° |
| 2026-04-25 15:36 | 32.83951 | -80.18229 | 34938 ft | 496 kts | 29° |
| 2026-04-25 15:37 | 32.89897 | -80.14104 | 34957 ft | 497 kts | 29° |
| 2026-04-25 15:37 | 32.95903 | -80.09933 | 34948 ft | 499 kts | 29° |
| 2026-04-25 15:38 | 33.01911 | -80.05751 | 34947 ft | 501 kts | 29° |
| 2026-04-25 15:38 | 33.07919 | -80.01562 | 34947 ft | 502 kts | 29° |
| 2026-04-25 15:39 | 33.17968 | -79.94548 | 34941 ft | 504 kts | 29° |
| 2026-04-25 15:39 | 33.36442 | -79.81597 | 34887 ft | 507 kts | 29° |
| 2026-04-25 15:40 | 33.40508 | -79.78738 | 34928 ft | 506 kts | 30° |
| 2026-04-25 15:40 | 33.48590 | -79.73043 | 34923 ft | 505 kts | 29° |
| 2026-04-25 15:41 | 33.54615 | -79.68791 | 34937 ft | 504 kts | 29° |
| 2026-04-25 15:41 | 33.60678 | -79.64506 | 34925 ft | 504 kts | 29° |
| 2026-04-25 15:42 | 33.66690 | -79.60249 | 34920 ft | 504 kts | 29° |
| 2026-04-25 15:42 | 33.72729 | -79.55967 | 34918 ft | 503 kts | 29° |
| 2026-04-25 15:43 | 33.78745 | -79.51693 | 34923 ft | 503 kts | 29° |
| 2026-04-25 15:43 | 33.84782 | -79.47397 | 34930 ft | 504 kts | 29° |
| 2026-04-25 15:44 | 33.96180 | -79.39267 | 34949 ft | 504 kts | 29° |
| 2026-04-25 15:44 | 34.11391 | -79.28376 | 34943 ft | 507 kts | 29° |
| 2026-04-25 15:45 | 34.22032 | -79.20732 | 34927 ft | 506 kts | 29° |
| 2026-04-25 15:45 | 34.26083 | -79.17797 | 34927 ft | 506 kts | 31° |
| 2026-04-25 15:46 | 34.33794 | -79.11267 | 34921 ft | 507 kts | 34° |
| 2026-04-25 15:46 | 34.39518 | -79.06313 | 34914 ft | 508 kts | 34° |
| 2026-04-25 15:47 | 34.45278 | -79.01344 | 34907 ft | 508 kts | 35° |
| 2026-04-25 15:47 | 34.50884 | -78.96100 | 34919 ft | 508 kts | 36° |
| 2026-04-25 15:48 | 34.56468 | -78.90907 | 34921 ft | 508 kts | 36° |
| 2026-04-25 15:48 | 34.62118 | -78.85705 | 34913 ft | 509 kts | 36° |
| 2026-04-25 15:49 | 34.67729 | -78.80528 | 34907 ft | 509 kts | 36° |
| 2026-04-25 15:49 | 34.73369 | -78.75305 | 34913 ft | 509 kts | 36° |
| 2026-04-25 15:50 | 34.79024 | -78.70055 | 34917 ft | 510 kts | 36° |
| 2026-04-25 15:50 | 34.89122 | -78.60656 | 34906 ft | 511 kts | 36° |
| 2026-04-25 15:51 | 34.92895 | -78.57137 | 34925 ft | 511 kts | 36° |
| 2026-04-25 15:51 | 35.00397 | -78.50129 | 34922 ft | 511 kts | 36° |
| 2026-04-25 15:52 | 35.06046 | -78.44839 | 34940 ft | 511 kts | 36° |
| 2026-04-25 15:52 | 35.11699 | -78.39537 | 34929 ft | 512 kts | 36° |
| 2026-04-25 15:53 | 35.17350 | -78.34226 | 34887 ft | 512 kts | 36° |
| 2026-04-25 15:53 | 35.23766 | -78.28185 | 34879 ft | 513 kts | 36° |
| 2026-04-25 15:54 | 35.28777 | -78.23459 | 34883 ft | 514 kts | 36° |
| 2026-04-25 15:54 | 35.34423 | -78.18129 | 34882 ft | 515 kts | 36° |
| 2026-04-25 15:55 | 35.40113 | -78.12749 | 34912 ft | 515 kts | 36° |
| 2026-04-25 15:55 | 35.45751 | -78.07407 | 34917 ft | 515 kts | 36° |
| 2026-04-25 15:56 | 35.51440 | -78.02004 | 34913 ft | 516 kts | 36° |
| 2026-04-25 15:56 | 35.57083 | -77.96637 | 34917 ft | 515 kts | 36° |
| 2026-04-25 15:57 | 35.62754 | -77.91232 | 34907 ft | 515 kts | 36° |
| 2026-04-25 15:57 | 35.68422 | -77.85819 | 34891 ft | 515 kts | 36° |
| 2026-04-25 15:58 | 35.74093 | -77.80395 | 34883 ft | 516 kts | 36° |
| 2026-04-25 15:58 | 35.79741 | -77.74983 | 34884 ft | 516 kts | 36° |
| 2026-04-25 15:59 | 35.85407 | -77.69543 | 34878 ft | 516 kts | 36° |
| 2026-04-25 15:59 | 35.91093 | -77.64075 | 34888 ft | 517 kts | 36° |
| 2026-04-25 16:00 | 35.94856 | -77.60448 | 34888 ft | 518 kts | 36° |
| 2026-04-25 16:00 | 36.02438 | -77.53129 | 34893 ft | 518 kts | 36° |
| 2026-04-25 16:01 | 36.08081 | -77.47671 | 34884 ft | 518 kts | 36° |
| 2026-04-25 16:01 | 36.13866 | -77.42064 | 34881 ft | 519 kts | 35° |
| 2026-04-25 16:02 | 36.30063 | -77.26309 | 34889 ft | 519 kts | 35° |
| 2026-04-25 16:02 | 36.37929 | -77.17877 | 34885 ft | 521 kts | 39° |
| 2026-04-25 16:03 | 36.43288 | -77.11778 | 34889 ft | 521 kts | 39° |
| 2026-04-25 16:03 | 36.48649 | -77.05703 | 34883 ft | 521 kts | 39° |
| 2026-04-25 16:04 | 36.54004 | -76.99676 | 34891 ft | 521 kts | 38° |
| 2026-04-25 16:04 | 36.59385 | -76.93623 | 34896 ft | 521 kts | 38° |
| 2026-04-25 16:05 | 36.64778 | -76.87546 | 34897 ft | 522 kts | 38° |
| 2026-04-25 16:06 | 36.72903 | -76.78359 | 34892 ft | 521 kts | 38° |
| 2026-04-25 16:06 | 36.78183 | -76.72371 | 34897 ft | 521 kts | 38° |
| 2026-04-25 16:07 | 36.83570 | -76.66253 | 34893 ft | 521 kts | 38° |
| 2026-04-25 16:07 | 36.88898 | -76.60189 | 34890 ft | 520 kts | 38° |
| 2026-04-25 16:08 | 36.94261 | -76.54073 | 34893 ft | 520 kts | 38° |
| 2026-04-25 16:08 | 36.99585 | -76.47989 | 34905 ft | 521 kts | 38° |
| 2026-04-25 16:09 | 37.04949 | -76.41847 | 34905 ft | 521 kts | 38° |
| 2026-04-25 16:09 | 37.10294 | -76.35715 | 34895 ft | 521 kts | 38° |
| 2026-04-25 16:10 | 37.15613 | -76.29600 | 34919 ft | 521 kts | 38° |
| 2026-04-25 16:10 | 37.20967 | -76.23433 | 34901 ft | 522 kts | 38° |
| 2026-04-25 16:11 | 37.26337 | -76.17236 | 34908 ft | 522 kts | 38° |
| 2026-04-25 16:11 | 37.31659 | -76.11080 | 34913 ft | 522 kts | 38° |
| 2026-04-25 16:12 | 37.37015 | -76.04872 | 34916 ft | 522 kts | 38° |
| 2026-04-25 16:12 | 37.42347 | -75.98679 | 34908 ft | 523 kts | 38° |
| 2026-04-25 16:13 | 37.47887 | -75.92887 | 34930 ft | 517 kts | 31° |
| 2026-04-25 16:13 | 37.53779 | -75.87628 | 34945 ft | 517 kts | 30° |
| 2026-04-25 16:14 | 37.59644 | -75.82415 | 34943 ft | 518 kts | 30° |
| 2026-04-25 16:14 | 37.65523 | -75.77094 | 34957 ft | 518 kts | 31° |
| 2026-04-25 16:15 | 37.71332 | -75.71781 | 34948 ft | 518 kts | 31° |
| 2026-04-25 16:15 | 37.77165 | -75.66429 | 34946 ft | 517 kts | 31° |
| 2026-04-25 16:16 | 37.90762 | -75.53933 | 34976 ft | 515 kts | 31° |
| 2026-04-25 16:16 | 38.05125 | -75.40671 | 34984 ft | 514 kts | 30° |
| 2026-04-25 16:17 | 38.11373 | -75.34882 | 34980 ft | 513 kts | 30° |
| 2026-04-25 16:17 | 38.17133 | -75.29534 | 34997 ft | 512 kts | 30° |
| 2026-04-25 16:18 | 38.22893 | -75.24175 | 35003 ft | 512 kts | 30° |
| 2026-04-25 16:18 | 38.28606 | -75.18850 | 35000 ft | 513 kts | 30° |
| 2026-04-25 16:19 | 38.41609 | -75.06690 | 35030 ft | 517 kts | 30° |
| 2026-04-25 16:19 | 38.53514 | -74.95504 | 35002 ft | 519 kts | 30° |
| 2026-04-25 16:20 | 38.62208 | -74.87304 | 35019 ft | 517 kts | 30° |
| 2026-04-25 16:21 | 38.80161 | -74.69348 | 35040 ft | 520 kts | 36° |
| 2026-04-25 16:21 | 38.87128 | -74.61069 | 35023 ft | 519 kts | 36° |
| 2026-04-25 16:22 | 38.92472 | -74.54807 | 35038 ft | 519 kts | 36° |
| 2026-04-25 16:22 | 38.97853 | -74.48676 | 35043 ft | 517 kts | 34° |
| 2026-04-25 16:23 | 39.11823 | -74.33759 | 35052 ft | 517 kts | 33° |
| 2026-04-25 16:23 | 39.48243 | -73.93914 | 35135 ft | 515 kts | 33° |
| 2026-04-25 16:24 | 39.53697 | -73.87951 | 35073 ft | 515 kts | 33° |
| 2026-04-25 16:24 | 39.70484 | -73.69483 | 35130 ft | 514 kts | 33° |
| 2026-04-25 16:25 | 39.75942 | -73.63435 | 35104 ft | 515 kts | 34° |
| 2026-04-25 16:25 | 39.81392 | -73.57382 | 35097 ft | 514 kts | 34° |
| 2026-04-25 16:26 | 39.86796 | -73.51370 | 35096 ft | 514 kts | 34° |
| 2026-04-25 16:26 | 39.92237 | -73.45307 | 35102 ft | 514 kts | 34° |
| 2026-04-25 16:27 | 39.97669 | -73.39240 | 35115 ft | 513 kts | 34° |
| 2026-04-25 16:27 | 40.02555 | -73.32309 | 35107 ft | 527 kts | 49° |
| 2026-04-25 16:28 | 40.06153 | -73.23875 | 35107 ft | 538 kts | 62° |
| 2026-04-25 16:28 | 40.08897 | -73.14833 | 35114 ft | 538 kts | 63° |
| 2026-04-25 16:29 | 40.16238 | -72.90367 | 35133 ft | 537 kts | 62° |
| 2026-04-25 16:29 | 40.19008 | -72.81286 | 35122 ft | 537 kts | 62° |
| 2026-04-25 16:30 | 40.21773 | -72.72186 | 35134 ft | 537 kts | 63° |
| 2026-04-25 16:30 | 40.24520 | -72.63100 | 35159 ft | 537 kts | 62° |
| 2026-04-25 16:31 | 40.27247 | -72.54041 | 35136 ft | 537 kts | 62° |
| 2026-04-25 16:31 | 40.31391 | -72.40218 | 35129 ft | 536 kts | 62° |
| 2026-04-25 16:32 | 40.42180 | -72.03894 | 35131 ft | 536 kts | 62° |
| 2026-04-25 16:32 | 40.52916 | -71.67238 | 35144 ft | 536 kts | 62° |
| 2026-04-25 16:33 | 40.59817 | -71.43408 | 35164 ft | 536 kts | 62° |
| 2026-04-25 16:33 | 40.62455 | -71.34241 | 35145 ft | 536 kts | 62° |
| 2026-04-25 16:34 | 40.65078 | -71.25092 | 35170 ft | 536 kts | 62° |
| 2026-04-25 16:34 | 40.67706 | -71.15891 | 35155 ft | 536 kts | 62° |
| 2026-04-25 16:35 | 40.69887 | -71.08231 | 35147 ft | 536 kts | 62° |
| 2026-04-25 16:35 | 40.72490 | -70.99061 | 35144 ft | 536 kts | 62° |
| 2026-04-25 16:36 | 40.75891 | -70.87029 | 35160 ft | 536 kts | 62° |
| 2026-04-25 16:36 | 40.78477 | -70.77841 | 35175 ft | 536 kts | 62° |
| 2026-04-25 16:37 | 40.81075 | -70.68580 | 35145 ft | 536 kts | 62° |
| 2026-04-25 16:37 | 40.83644 | -70.59384 | 35143 ft | 536 kts | 62° |
| 2026-04-25 16:38 | 40.86229 | -70.50102 | 35160 ft | 536 kts | 62° |
| 2026-04-25 16:38 | 40.88798 | -70.40840 | 35145 ft | 536 kts | 62° |
| 2026-04-25 16:39 | 40.91345 | -70.31623 | 35155 ft | 535 kts | 62° |
| 2026-04-25 16:39 | 40.93896 | -70.22362 | 35143 ft | 535 kts | 62° |
| 2026-04-25 16:40 | 40.96426 | -70.13143 | 35151 ft | 535 kts | 62° |
| 2026-04-25 16:40 | 40.98962 | -70.03865 | 35138 ft | 534 kts | 62° |
| 2026-04-25 16:41 | 41.01466 | -69.94668 | 35147 ft | 533 kts | 62° |
| 2026-04-25 16:41 | 41.02313 | -69.91549 | 34996 ft | 531 kts | 62° |
| 2026-04-25 16:41 | 41.05250 | -69.80796 | 33538 ft | 529 kts | 59° |
| 2026-04-25 16:42 | 41.06725 | -69.76469 | 32783 ft | 515 kts | 53° |
| 2026-04-25 16:42 | 41.08466 | -69.72355 | 32049 ft | 505 kts | 49° |
| 2026-04-25 16:42 | 41.10394 | -69.68522 | 31332 ft | 493 kts | 43° |
| 2026-04-25 16:42 | 41.12499 | -69.64977 | 30622 ft | 487 kts | 41° |
| 2026-04-25 16:43 | 41.14608 | -69.61480 | 29901 ft | 485 kts | 41° |
| 2026-04-25 16:43 | 41.16708 | -69.57987 | 29394 ft | 477 kts | 41° |
| 2026-04-25 16:43 | 41.18749 | -69.54563 | 29201 ft | 469 kts | 41° |
| 2026-04-25 16:43 | 41.20770 | -69.51168 | 29165 ft | 468 kts | 40° |
| 2026-04-25 16:44 | 41.25752 | -69.42763 | 29131 ft | 465 kts | 41° |
| 2026-04-25 16:44 | 41.30725 | -69.34328 | 29135 ft | 465 kts | 41° |
| 2026-04-25 16:45 | 41.34717 | -69.27532 | 29141 ft | 466 kts | 41° |
| 2026-04-25 16:45 | 41.38719 | -69.20705 | 29134 ft | 467 kts | 41° |
| 2026-04-25 16:46 | 41.42734 | -69.13840 | 29140 ft | 468 kts | 40° |
| 2026-04-25 16:46 | 41.46063 | -69.08132 | 29130 ft | 468 kts | 40° |
| 2026-04-25 16:47 | 41.50706 | -69.00153 | 29131 ft | 468 kts | 40° |
| 2026-04-25 16:47 | 41.54694 | -68.93282 | 29129 ft | 467 kts | 40° |
| 2026-04-25 16:48 | 41.58706 | -68.86371 | 29155 ft | 478 kts | 40° |
| 2026-04-25 16:48 | 41.60750 | -68.82866 | 29151 ft | 490 kts | 40° |
| 2026-04-25 16:48 | 41.62872 | -68.79219 | 29137 ft | 501 kts | 40° |
| 2026-04-25 16:49 | 41.67221 | -68.71691 | 29131 ft | 517 kts | 41° |
| 2026-04-25 16:49 | 41.73204 | -68.61231 | 29118 ft | 518 kts | 41° |
| 2026-04-25 16:50 | 41.80234 | -68.48931 | 29146 ft | 518 kts | 41° |
| 2026-04-25 16:50 | 41.84616 | -68.41259 | 29119 ft | 517 kts | 41° |
| 2026-04-25 16:51 | 41.88962 | -68.33627 | 29110 ft | 516 kts | 41° |
| 2026-04-25 16:51 | 41.92584 | -68.27253 | 29146 ft | 515 kts | 41° |
| 2026-04-25 16:52 | 41.97671 | -68.18279 | 29143 ft | 515 kts | 41° |
| 2026-04-25 16:52 | 42.01999 | -68.10620 | 29107 ft | 513 kts | 41° |
| 2026-04-25 16:53 | 42.13138 | -67.90821 | 29120 ft | 511 kts | 41° |
| 2026-04-25 16:54 | 42.17419 | -67.83181 | 29102 ft | 511 kts | 41° |
| 2026-04-25 16:54 | 42.38375 | -67.45611 | 29191 ft | 513 kts | 43° |
| 2026-04-25 16:55 | 42.58340 | -67.09167 | 29142 ft | 511 kts | 45° |
| 2026-04-25 16:55 | 42.70743 | -66.82549 | 29009 ft | 520 kts | 52° |
| 2026-04-25 16:56 | 42.83700 | -66.51646 | 29052 ft | 517 kts | 56° |
| 2026-04-25 16:56 | 42.87168 | -66.43060 | 29057 ft | 515 kts | 55° |
| 2026-04-25 16:57 | 42.90639 | -66.34576 | 29063 ft | 514 kts | 56° |
| 2026-04-25 16:57 | 42.94146 | -66.26063 | 29041 ft | 513 kts | 56° |
| 2026-04-25 16:58 | 42.97604 | -66.17668 | 29066 ft | 512 kts | 57° |
| 2026-04-25 16:58 | 43.01120 | -66.09108 | 29055 ft | 511 kts | 57° |
| 2026-04-25 16:59 | 43.04577 | -66.00655 | 29029 ft | 510 kts | 58° |
| 2026-04-25 16:59 | 43.08036 | -65.92171 | 29026 ft | 509 kts | 58° |
| 2026-04-25 17:00 | 43.11468 | -65.83733 | 29020 ft | 509 kts | 58° |
| 2026-04-25 17:00 | 43.14910 | -65.75246 | 29021 ft | 509 kts | 58° |
| 2026-04-25 17:01 | 43.18331 | -65.66779 | 29014 ft | 509 kts | 58° |
| 2026-04-25 17:01 | 43.21742 | -65.58313 | 29000 ft | 509 kts | 58° |
| 2026-04-25 17:02 | 43.25159 | -65.49807 | 28984 ft | 508 kts | 59° |
| 2026-04-25 17:02 | 43.28560 | -65.41317 | 28994 ft | 506 kts | 59° |
| 2026-04-25 17:03 | 43.31924 | -65.32897 | 28983 ft | 504 kts | 59° |
| 2026-04-25 17:03 | 43.35287 | -65.24453 | 28982 ft | 503 kts | 59° |
| 2026-04-25 17:04 | 43.38650 | -65.15986 | 28979 ft | 503 kts | 59° |
| 2026-04-25 17:04 | 43.41999 | -65.07532 | 28988 ft | 503 kts | 60° |
| 2026-04-25 17:05 | 43.45317 | -64.99123 | 28975 ft | 502 kts | 60° |
| 2026-04-25 17:05 | 43.50309 | -64.86427 | 28974 ft | 500 kts | 60° |
| 2026-04-25 17:06 | 43.53599 | -64.78031 | 28975 ft | 498 kts | 60° |
| 2026-04-25 17:06 | 43.56888 | -64.69613 | 28966 ft | 497 kts | 60° |
| 2026-04-25 17:07 | 43.60168 | -64.61194 | 28968 ft | 497 kts | 60° |
| 2026-04-25 17:07 | 43.63423 | -64.52812 | 28967 ft | 497 kts | 60° |
| 2026-04-25 17:08 | 43.66677 | -64.44409 | 28964 ft | 498 kts | 60° |
| 2026-04-25 17:08 | 43.69942 | -64.35952 | 28959 ft | 498 kts | 60° |
| 2026-04-25 17:09 | 43.73200 | -64.27486 | 28958 ft | 499 kts | 60° |
| 2026-04-25 17:09 | 43.76443 | -64.19036 | 28948 ft | 499 kts | 60° |
| 2026-04-25 17:10 | 43.79702 | -64.10516 | 28940 ft | 499 kts | 60° |
| 2026-04-25 17:10 | 43.82950 | -64.02001 | 28939 ft | 499 kts | 60° |
| 2026-04-25 17:11 | 43.86171 | -63.93532 | 28938 ft | 499 kts | 60° |
| 2026-04-25 17:11 | 43.89402 | -63.85010 | 28940 ft | 499 kts | 60° |
| 2026-04-25 17:12 | 43.92628 | -63.76473 | 28925 ft | 499 kts | 60° |
| 2026-04-25 17:12 | 43.95829 | -63.67981 | 28922 ft | 499 kts | 60° |
| 2026-04-25 17:13 | 43.97982 | -63.62251 | 28926 ft | 499 kts | 62° |
| 2026-04-25 17:13 | 44.02258 | -63.50834 | 28921 ft | 500 kts | 60° |
| 2026-04-25 17:14 | 44.05466 | -63.42248 | 28912 ft | 501 kts | 61° |
| 2026-04-25 17:14 | 44.08665 | -63.33654 | 28908 ft | 501 kts | 60° |
| 2026-04-25 17:15 | 44.11831 | -63.25127 | 28906 ft | 501 kts | 61° |
| 2026-04-25 17:15 | 44.14491 | -63.17930 | 28906 ft | 501 kts | 61° |
| 2026-04-25 17:16 | 44.17683 | -63.09277 | 28894 ft | 502 kts | 60° |
| 2026-04-25 17:16 | 44.20883 | -63.00583 | 28902 ft | 502 kts | 60° |
| 2026-04-25 17:17 | 44.24047 | -62.91945 | 28884 ft | 502 kts | 60° |
| 2026-04-25 17:17 | 44.27222 | -62.83264 | 28887 ft | 502 kts | 61° |
| 2026-04-25 17:18 | 44.30396 | -62.74545 | 28876 ft | 502 kts | 61° |
| 2026-04-25 17:18 | 44.33536 | -62.65895 | 28872 ft | 502 kts | 61° |
| 2026-04-25 17:19 | 44.36688 | -62.57196 | 28875 ft | 502 kts | 61° |
| 2026-04-25 17:19 | 44.39838 | -62.48471 | 28874 ft | 501 kts | 61° |
| 2026-04-25 17:20 | 44.42953 | -62.39817 | 28861 ft | 500 kts | 60° |
| 2026-04-25 17:20 | 44.46085 | -62.31093 | 28858 ft | 500 kts | 61° |
| 2026-04-25 17:21 | 44.49197 | -62.22380 | 28851 ft | 500 kts | 61° |